松山國際航空站 - 塔臺

SPECI RCSS 290652Z 31003KT 260V350 5000 VCTS SHRA FEW010 FEW012CB BKN020 BKN040 27/27 Q1000 BECMG NSW RMK TS W-NW MOV E A2955=

站台狀態:Offline
最後更新:2021-07-29 15:00:01